Dearborn, MO

2:12 PM CST on December 18, 2014 (GMT -0600)
Clinton Estates | Change Station
CLOSE
Current Station
Personal Weather Station
Location: Trimble, MO
Elevation: 975 ft
Nearby Weather Stations

Elev 975 ft 39.47 °N, 94.58 °W | Updated 2 minutes ago

Overcast
Overcast
32.3 °F
Feels Like 32 °F
N
3.0
Wind Variable Wind from ENE
Gusts 4.0 mph

Today
High -- | Low -- °F
--% Chance of Precip.
Yesterday
High -- | Low -- °F
Precip. -- in
7:34 AM 4:57 PM
Waning Crescent, 12% visible
Pressure 30.22 in
Visibility 7.0 miles
Clouds Overcast 900 ft
Windchill 32 °F
Dew Point 30 °F
Humidity 91%
Rainfall 0.07 in
Snow Depth Not available.
UV 1 out of 12
Pollen .10 out of 12
Air Quality Not available.
Flu Activity Not available.
METAR KMCI 181953Z 05005KT 7SM OVC009 00/M02 A3019 RMK AO2 SNE46 SLP232 P0000 T00001022 $

More Conditions Fewer Conditions

Pressure 30.22 in
Visibility 7.0 miles
Clouds Overcast 900 ft
Windchill 32 °F
Dew Point 30 °F
Humidity 91%
Rainfall 0.07 in
Snow Depth Not available.
UV 1 out of 12
Pollen .10 out of 12
Air Quality Not available.
Flu Activity Not available.
METAR KMCI 181953Z 05005KT 7SM OVC009 00/M02 A3019 RMK AO2 SNE46 SLP232 P0000 T00001022 $

More Conditions Fewer Conditions

10-Day Weather Forecast

Almanac

Astronomy

Dec. 18, 2014 Rise Set
Actual Time
Civil Twilight
Nautical Twilight
Astronomical Twilight
Moon
Length of Visible Light
Length of Day
Tomorrow will be .
, % of the Moon is Illuminated

Today's Extremes

State Highs State Lows

Community

WunderPhotos

Upload Photos

1,778,992 photos uploaded!

WunderBlogs® & News

Nearby

Air Quality

  Air Quality AQ Index Pollutant
Not available.

Snow Depth

Station Depth Elevation

Earthquake Activity

City Distance Mag. Time & Date
Minimum magnitude displayed is 2.5.

Coastal Water Temperatures

Place Temperature

Nearby Weather Stations